Time;durP1;ratioP1;P1;durP2;ratioP2;P2;SDS_P1;SDS_P2;PMS_P1;PMS_P2;Temp;Humidity;BMP_temperature;BMP_pressure;BME280_temperature;BME280_humidity;BME280_pressure;Samples;Min_cycle;Max_cycle;Signal;HPM_P1;HPM_P2
2023/05/06 00:01:40;;;;;;;11.00;6.53;;;11.30;99.90;;;;;;5012109;28;20480;-74
2023/05/06 00:04:05;;;;;;;7.63;5.38;;;11.40;99.90;;;;;;4992149;28;20445;-75
2023/05/06 00:06:32;;;;;;;11.95;6.72;;;11.30;99.90;;;;;;5027134;28;20385;-74
2023/05/06 00:08:58;;;;;;;10.10;6.25;;;11.30;99.90;;;;;;5000527;28;20740;-74
2023/05/06 00:11:24;;;;;;;10.80;6.78;;;11.20;99.90;;;;;;5009448;28;20037;-75
2023/05/06 00:13:49;;;;;;;10.77;6.43;;;11.20;99.90;;;;;;5011265;28;20100;-75
2023/05/06 00:16:15;;;;;;;10.13;6.78;;;11.20;99.90;;;;;;5009200;28;20438;-76
2023/05/06 00:18:41;;;;;;;11.30;7.10;;;11.10;99.90;;;;;;5010017;28;20060;-75
2023/05/06 00:21:07;;;;;;;11.57;6.93;;;11.10;99.90;;;;;;5027864;28;20053;-75
2023/05/06 00:23:32;;;;;;;11.18;6.68;;;10.90;99.90;;;;;;5008372;28;20140;-75
2023/05/06 00:25:58;;;;;;;10.52;6.55;;;10.80;99.90;;;;;;5023055;28;20034;-74
2023/05/06 00:28:23;;;;;;;10.40;6.72;;;10.70;99.90;;;;;;5023338;28;20040;-74
2023/05/06 00:30:49;;;;;;;11.05;7.00;;;10.70;99.90;;;;;;5014196;28;20038;-73
2023/05/06 00:33:14;;;;;;;13.18;7.40;;;10.60;99.90;;;;;;4996416;28;20092;-75
2023/05/06 00:35:40;;;;;;;12.73;7.20;;;10.50;99.90;;;;;;5026258;28;20486;-72
2023/05/06 00:38:11;;;;;;;12.05;6.93;;;10.50;99.90;;;;;;5029389;28;20182;-75
2023/05/06 00:40:37;;;;;;;10.10;6.95;;;10.50;99.90;;;;;;5004026;28;20053;-75
2023/05/06 00:43:03;;;;;;;10.18;6.80;;;10.40;99.90;;;;;;5010356;28;20515;-73
2023/05/06 00:45:29;;;;;;;32.17;8.55;;;10.40;99.90;;;;;;4992939;28;20390;-74
2023/05/06 00:47:56;;;;;;;10.73;5.15;;;10.40;99.90;;;;;;5007713;28;20457;-71
2023/05/06 00:50:22;;;;;;;20.73;3.97;;;10.30;99.90;;;;;;5044405;28;20033;-75
2023/05/06 00:52:48;;;;;;;38.08;5.28;;;10.30;99.90;;;;;;5028639;28;20043;-74
2023/05/06 00:55:14;;;;;;;45.17;5.03;;;10.20;99.90;;;;;;5030585;28;20083;-74
2023/05/06 00:57:42;;;;;;;5.78;4.13;;;10.10;99.90;;;;;;5013569;28;20038;-75
2023/05/06 01:00:10;;;;;;;10.50;3.42;;;10.00;99.90;;;;;;5008907;28;20073;-75
2023/05/06 01:02:35;;;;;;;7.18;3.35;;;9.90;99.90;;;;;;5009837;28;20038;-75
2023/05/06 01:05:02;;;;;;;4.10;3.20;;;9.80;99.90;;;;;;5007248;28;20141;-75
2023/05/06 01:07:50;;;;;;;5.20;3.45;;;9.80;99.90;;;;;;5020150;28;20096;-75
2023/05/06 01:10:32;;;;;;;8.13;3.75;;;9.70;99.90;;;;;;5012068;28;20038;-76
2023/05/06 01:13:10;;;;;;;24.23;5.70;;;9.70;99.90;;;;;;5028194;28;20041;-76
2023/05/06 01:15:48;;;;;;;11.10;5.00;;;9.70;99.90;;;;;;5014736;28;20069;-75
2023/05/06 01:18:20;;;;;;;8.82;5.80;;;9.70;99.90;;;;;;5027483;28;20120;-75
2023/05/06 01:20:52;;;;;;;8.80;5.90;;;9.80;99.90;;;;;;5011569;28;20072;-75
2023/05/06 01:23:18;;;;;;;14.60;8.10;;;9.80;99.90;;;;;;5019295;28;20049;-75
2023/05/06 01:25:44;;;;;;;13.23;8.30;;;9.80;99.90;;;;;;5001018;28;20238;-75
2023/05/06 01:28:10;;;;;;;14.35;8.10;;;9.90;99.90;;;;;;5014327;28;20136;-75
2023/05/06 01:30:43;;;;;;;12.80;8.20;;;9.90;99.90;;;;;;5011357;28;20068;-75
2023/05/06 01:33:16;;;;;;;11.75;7.82;;;9.90;99.90;;;;;;5016683;28;20049;-75
2023/05/06 01:35:51;;;;;;;13.75;8.38;;;9.90;99.90;;;;;;5020445;28;20038;-75
2023/05/06 01:38:38;;;;;;;13.45;7.68;;;9.90;99.90;;;;;;5026789;28;20436;-75
2023/05/06 01:41:04;;;;;;;13.27;7.75;;;9.90;99.90;;;;;;5013113;28;20050;-76
2023/05/06 01:43:38;;;;;;;9.65;7.22;;;10.00;99.90;;;;;;5016073;28;20034;-75
2023/05/06 01:46:04;;;;;;;11.85;7.97;;;10.00;99.90;;;;;;5012672;28;20091;-74
2023/05/06 01:48:33;;;;;;;13.82;8.05;;;10.10;99.90;;;;;;5012752;28;20038;-75
2023/05/06 01:50:59;;;;;;;13.30;7.78;;;10.10;99.90;;;;;;4992313;28;20037;-75
2023/05/06 01:53:24;;;;;;;12.70;7.55;;;10.10;99.90;;;;;;4997547;28;20409;-75
2023/05/06 01:55:50;;;;;;;12.38;7.95;;;10.10;99.90;;;;;;5008044;28;20484;-75
2023/05/06 01:58:16;;;;;;;13.50;8.10;;;10.10;99.90;;;;;;5007047;28;20148;-76
2023/05/06 02:00:41;;;;;;;14.68;8.43;;;10.20;99.90;;;;;;4993457;28;20137;-76
2023/05/06 02:03:07;;;;;;;17.33;9.40;;;10.20;99.90;;;;;;5006334;28;20144;-75
2023/05/06 02:05:33;;;;;;;18.30;10.68;;;10.30;99.90;;;;;;4998401;28;20029;-74
2023/05/06 02:07:59;;;;;;;18.65;10.80;;;10.30;99.90;;;;;;5011090;28;20043;-74
2023/05/06 02:10:24;;;;;;;16.17;10.30;;;10.40;99.90;;;;;;5018524;28;20034;-74
2023/05/06 02:12:50;;;;;;;14.18;10.25;;;10.30;99.90;;;;;;5009090;28;20481;-75
2023/05/06 02:15:16;;;;;;;17.00;10.75;;;10.10;99.90;;;;;;5005965;28;20037;-75
2023/05/06 02:17:42;;;;;;;15.85;10.55;;;10.10;99.90;;;;;;5008767;28;20478;-73
2023/05/06 02:20:11;;;;;;;14.25;9.88;;;10.00;99.90;;;;;;5007481;28;20045;-76
2023/05/06 02:22:36;;;;;;;16.75;10.00;;;9.90;99.90;;;;;;5009379;28;20041;-75
2023/05/06 02:25:02;;;;;;;16.05;10.15;;;9.80;99.90;;;;;;5009060;28;20099;-76
2023/05/06 02:27:28;;;;;;;16.73;10.70;;;9.80;99.90;;;;;;5007266;28;20049;-75
2023/05/06 02:29:54;;;;;;;18.75;10.52;;;9.80;99.90;;;;;;5010021;28;20401;-76
2023/05/06 02:32:19;;;;;;;45.17;10.90;;;9.80;99.90;;;;;;5007949;28;20040;-75
2023/05/06 02:34:45;;;;;;;16.80;8.40;;;9.70;99.90;;;;;;5008270;28;20077;-76
2023/05/06 02:37:10;;;;;;;66.88;10.07;;;9.60;99.90;;;;;;5019274;28;20045;-75
2023/05/06 02:39:36;;;;;;;12.75;8.70;;;9.50;99.90;;;;;;5003918;28;20057;-75
2023/05/06 02:42:02;;;;;;;13.13;9.00;;;9.60;99.90;;;;;;5025412;28;20057;-74
2023/05/06 02:44:28;;;;;;;15.35;9.75;;;9.60;99.90;;;;;;5014988;28;20194;-75
2023/05/06 02:46:54;;;;;;;17.30;10.50;;;9.60;99.90;;;;;;5023345;28;20500;-72
2023/05/06 02:49:19;;;;;;;16.08;10.35;;;9.60;99.90;;;;;;5008512;28;20119;-75
2023/05/06 02:51:45;;;;;;;29.63;11.40;;;9.60;99.90;;;;;;5001757;28;20120;-76
2023/05/06 02:54:10;;;;;;;12.95;8.07;;;9.60;99.90;;;;;;5011425;28;20057;-72
2023/05/06 02:56:36;;;;;;;12.70;8.20;;;9.60;99.90;;;;;;4997360;28;20038;-75
2023/05/06 02:59:02;;;;;;;11.88;8.02;;;9.50;99.90;;;;;;5020603;28;20033;-75
2023/05/06 03:01:27;;;;;;;19.27;8.70;;;9.30;99.90;;;;;;5009424;28;20046;-75
2023/05/06 03:03:53;;;;;;;11.13;8.35;;;9.20;99.90;;;;;;5005503;28;20390;-75
2023/05/06 03:06:18;;;;;;;18.27;8.60;;;9.10;99.90;;;;;;4995062;28;20498;-74
2023/05/06 03:08:44;;;;;;;22.48;7.53;;;8.90;99.90;;;;;;5006728;28;20073;-72
2023/05/06 03:11:10;;;;;;;23.98;6.95;;;8.90;99.90;;;;;;5000985;28;20432;-74
2023/05/06 03:13:35;;;;;;;34.20;6.80;;;8.80;99.90;;;;;;5007651;28;20038;-75
2023/05/06 03:16:01;;;;;;;19.55;5.97;;;8.80;99.90;;;;;;5005565;28;20096;-74
2023/05/06 03:18:27;;;;;;;48.65;7.18;;;8.70;99.90;;;;;;5006972;28;20048;-75
2023/05/06 03:20:53;;;;;;;46.60;6.72;;;8.60;99.90;;;;;;5004086;28;20089;-72
2023/05/06 03:23:18;;;;;;;20.67;6.35;;;8.60;99.90;;;;;;5015791;28;20073;-72
2023/05/06 03:25:44;;;;;;;6.47;5.18;;;8.50;99.90;;;;;;5013811;28;20033;-72
2023/05/06 03:28:10;;;;;;;8.18;5.35;;;8.40;99.90;;;;;;5011244;28;20049;-75
2023/05/06 03:30:36;;;;;;;32.40;5.18;;;8.40;99.90;;;;;;5015464;28;20511;-72
2023/05/06 03:33:01;;;;;;;38.10;5.53;;;8.50;99.90;;;;;;5011717;28;20132;-74
2023/05/06 03:35:27;;;;;;;14.65;4.38;;;8.40;99.90;;;;;;5010468;28;20049;-74
2023/05/06 03:37:53;;;;;;;9.88;4.07;;;8.30;99.90;;;;;;5002032;28;20067;-75
2023/05/06 03:40:18;;;;;;;27.65;5.03;;;8.20;99.90;;;;;;4997079;28;20352;-72
2023/05/06 03:42:44;;;;;;;18.90;4.15;;;8.10;99.90;;;;;;5025082;28;20038;-74
2023/05/06 03:45:10;;;;;;;28.98;4.32;;;8.10;99.90;;;;;;5019401;28;20413;-74
2023/05/06 03:47:35;;;;;;;25.42;4.75;;;8.00;99.90;;;;;;5029269;28;20041;-74
2023/05/06 03:50:01;;;;;;;14.40;4.65;;;8.10;99.90;;;;;;4992845;28;20477;-75
2023/05/06 03:52:27;;;;;;;17.60;4.57;;;8.00;99.90;;;;;;5011899;28;20057;-75
2023/05/06 03:54:52;;;;;;;15.23;4.13;;;8.10;99.90;;;;;;5010583;28;20034;-75
2023/05/06 03:57:18;;;;;;;26.83;5.25;;;8.00;99.90;;;;;;5009063;28;20063;-75
2023/05/06 03:59:44;;;;;;;24.80;5.03;;;8.00;99.90;;;;;;5011125;28;20096;-75
2023/05/06 04:02:09;;;;;;;18.80;5.25;;;8.00;99.90;;;;;;4995003;28;20041;-75
2023/05/06 04:04:35;;;;;;;33.10;5.00;;;7.90;99.90;;;;;;5012826;28;20506;-75
2023/05/06 04:07:02;;;;;;;24.20;4.68;;;8.00;99.90;;;;;;4999092;28;20477;-75
2023/05/06 04:09:28;;;;;;;14.00;4.72;;;8.00;99.90;;;;;;5008661;28;20386;-73
2023/05/06 04:11:53;;;;;;;19.30;5.20;;;8.00;99.90;;;;;;4994371;28;20056;-76
2023/05/06 04:14:19;;;;;;;6.80;4.75;;;8.10;99.90;;;;;;4992025;28;20428;-76
2023/05/06 04:16:45;;;;;;;11.98;5.55;;;8.10;99.90;;;;;;4995728;28;20096;-73
2023/05/06 04:19:10;;;;;;;19.98;5.90;;;8.10;99.90;;;;;;5010961;28;20041;-76
2023/05/06 04:21:36;;;;;;;24.83;6.30;;;8.10;99.90;;;;;;5013144;28;20474;-74
2023/05/06 04:24:01;;;;;;;25.40;6.75;;;8.10;99.90;;;;;;5031717;28;20128;-74
2023/05/06 04:26:27;;;;;;;31.85;7.25;;;8.20;99.90;;;;;;5009444;28;20042;-76
2023/05/06 04:28:52;;;;;;;30.77;6.93;;;8.20;99.90;;;;;;5024863;28;20038;-75
2023/05/06 04:31:18;;;;;;;40.88;7.38;;;8.30;99.90;;;;;;5023764;28;20437;-75
2023/05/06 04:33:43;;;;;;;19.52;6.85;;;8.20;99.90;;;;;;4991905;28;20046;-75
2023/05/06 04:36:09;;;;;;;27.67;7.15;;;8.30;99.90;;;;;;5022144;28;20044;-75
2023/05/06 04:38:36;;;;;;;30.13;7.65;;;8.30;99.90;;;;;;5007274;28;20529;-75
2023/05/06 04:41:03;;;;;;;37.17;7.50;;;8.30;99.90;;;;;;5039648;28;20141;-76
2023/05/06 04:43:28;;;;;;;35.03;7.13;;;8.40;99.90;;;;;;5010590;28;20041;-72
2023/05/06 04:45:54;;;;;;;35.05;7.30;;;8.40;99.90;;;;;;5016869;28;20033;-71
2023/05/06 04:48:23;;;;;;;22.38;7.03;;;8.30;99.90;;;;;;5009727;28;20550;-76
2023/05/06 04:50:49;;;;;;;25.83;7.55;;;8.40;99.90;;;;;;4989970;28;20037;-75
2023/05/06 04:53:16;;;;;;;16.38;6.50;;;8.40;99.90;;;;;;5008778;28;20042;-75
2023/05/06 04:55:42;;;;;;;18.65;7.05;;;8.40;99.90;;;;;;5011946;28;20042;-75
2023/05/06 04:58:07;;;;;;;11.35;6.03;;;8.40;99.90;;;;;;4993336;28;20057;-72
2023/05/06 05:00:33;;;;;;;27.13;7.20;;;8.40;99.90;;;;;;5010329;28;20038;-76
2023/05/06 05:03:00;;;;;;;23.90;7.53;;;8.50;99.90;;;;;;5015817;28;20045;-75
2023/05/06 05:05:27;;;;;;;26.60;7.32;;;8.50;99.90;;;;;;5022140;28;20603;-74
2023/05/06 05:07:53;;;;;;;17.85;7.53;;;8.60;99.90;;;;;;5028863;28;20041;-76
2023/05/06 05:10:19;;;;;;;15.57;6.57;;;8.60;99.90;;;;;;5012308;28;20034;-72
2023/05/06 05:12:45;;;;;;;15.48;6.82;;;8.60;99.90;;;;;;5010718;28;20038;-75
2023/05/06 05:15:11;;;;;;;14.70;6.70;;;8.60;99.90;;;;;;4988812;28;20038;-76
2023/05/06 05:17:36;;;;;;;20.17;8.15;;;8.60;99.90;;;;;;5019981;28;20038;-76
2023/05/06 05:20:03;;;;;;;11.98;8.43;;;8.70;99.90;;;;;;5013788;28;20134;-76
2023/05/06 05:22:29;;;;;;;16.08;9.13;;;8.70;99.90;;;;;;5019118;28;20049;-74
2023/05/06 05:24:54;;;;;;;10.13;8.65;;;8.80;99.90;;;;;;5022663;28;20033;-76
2023/05/06 05:27:20;;;;;;;16.15;9.25;;;8.80;99.90;;;;;;5011858;28;20041;-76
2023/05/06 05:29:46;;;;;;;17.30;9.60;;;8.90;99.90;;;;;;5029188;28;20069;-76
2023/05/06 05:32:11;;;;;;;17.67;9.50;;;9.00;99.90;;;;;;5022865;28;20046;-76
2023/05/06 05:34:37;;;;;;;34.72;9.45;;;9.10;99.90;;;;;;5010606;28;20051;-75
2023/05/06 05:37:02;;;;;;;13.88;9.55;;;9.10;99.90;;;;;;5027417;28;20064;-73
2023/05/06 05:39:28;;;;;;;15.88;8.93;;;9.10;99.90;;;;;;5026810;28;20724;-76
2023/05/06 05:41:53;;;;;;;21.08;9.32;;;9.20;99.90;;;;;;5031051;28;20061;-76
2023/05/06 05:44:19;;;;;;;20.58;9.18;;;9.20;99.90;;;;;;5009493;28;20132;-76
2023/05/06 05:46:45;;;;;;;20.77;8.38;;;9.30;99.90;;;;;;5017502;28;20045;-75
2023/05/06 05:49:10;;;;;;;18.50;9.75;;;9.30;99.90;;;;;;5006214;28;20461;-76
2023/05/06 05:51:36;;;;;;;12.82;9.43;;;9.30;99.90;;;;;;5013752;28;20121;-75
2023/05/06 05:54:01;;;;;;;18.52;9.75;;;9.50;99.90;;;;;;4997676;28;20056;-77
2023/05/06 05:56:30;;;;;;;10.40;9.30;;;9.60;99.90;;;;;;5017265;28;20073;-75
2023/05/06 05:58:55;;;;;;;10.75;9.52;;;9.60;99.90;;;;;;5011664;28;20076;-74
2023/05/06 06:01:21;;;;;;;13.52;10.38;;;9.70;99.90;;;;;;5013885;28;20066;-76
2023/05/06 06:03:46;;;;;;;14.25;10.30;;;9.60;99.90;;;;;;5006347;28;20487;-75
2023/05/06 06:06:12;;;;;;;14.27;10.30;;;9.70;99.90;;;;;;5013004;28;20072;-74
2023/05/06 06:08:38;;;;;;;12.93;10.90;;;9.80;99.90;;;;;;5011387;28;20396;-75
2023/05/06 06:11:04;;;;;;;13.93;11.65;;;9.80;99.90;;;;;;5014420;28;20120;-76
2023/05/06 06:13:30;;;;;;;13.27;11.13;;;9.90;99.90;;;;;;5008604;28;20046;-76
2023/05/06 06:15:56;;;;;;;13.45;10.85;;;9.90;99.90;;;;;;4998113;28;20037;-74
2023/05/06 06:18:23;;;;;;;15.15;12.10;;;9.90;99.90;;;;;;5011415;28;20370;-76
2023/05/06 06:20:48;;;;;;;13.02;11.07;;;9.90;99.90;;;;;;5006780;28;20053;-75
2023/05/06 06:23:14;;;;;;;14.15;10.93;;;9.90;99.90;;;;;;5005407;28;20553;-75
2023/05/06 06:25:39;;;;;;;15.68;12.13;;;9.90;99.90;;;;;;5000078;28;20040;-74
2023/05/06 06:28:05;;;;;;;24.33;12.82;;;10.00;99.90;;;;;;5013414;28;20039;-72
2023/05/06 06:30:31;;;;;;;21.48;13.00;;;10.00;99.90;;;;;;5018845;28;20402;-76
2023/05/06 06:32:57;;;;;;;28.23;13.93;;;10.10;99.90;;;;;;5027143;28;20725;-72
2023/05/06 06:35:23;;;;;;;23.33;13.90;;;10.30;99.90;;;;;;5016330;28;20046;-73
2023/05/06 06:37:49;;;;;;;40.25;16.17;;;10.60;99.90;;;;;;5015091;28;20036;-74
2023/05/06 06:40:16;;;;;;;35.08;17.25;;;10.90;99.90;;;;;;5006345;28;20061;-74
2023/05/06 06:42:41;;;;;;;28.58;16.67;;;10.90;99.90;;;;;;5008447;28;20076;-74
2023/05/06 06:45:08;;;;;;;39.10;17.02;;;11.00;99.90;;;;;;4999300;28;20066;-72
2023/05/06 06:47:34;;;;;;;28.17;18.27;;;11.20;99.90;;;;;;5014611;28;20034;-73
2023/05/06 06:50:00;;;;;;;31.17;19.63;;;11.40;99.90;;;;;;5014936;28;20540;-74
2023/05/06 06:52:26;;;;;;;29.27;19.08;;;11.80;99.90;;;;;;5013581;28;20046;-73
2023/05/06 06:54:51;;;;;;;30.42;18.58;;;12.00;99.90;;;;;;5021131;28;20053;-73
2023/05/06 06:57:17;;;;;;;26.42;17.05;;;12.00;99.90;;;;;;5019123;28;20722;-73
2023/05/06 06:59:43;;;;;;;25.73;17.60;;;12.20;99.90;;;;;;5003006;28;20080;-73
2023/05/06 07:02:09;;;;;;;25.25;16.77;;;12.10;99.90;;;;;;5016146;28;20076;-73
2023/05/06 07:04:34;;;;;;;30.42;18.40;;;12.20;99.90;;;;;;5030169;28;20095;-73
2023/05/06 07:07:00;;;;;;;26.70;17.10;;;12.40;99.90;;;;;;5030609;28;20041;-73
2023/05/06 07:09:25;;;;;;;27.10;16.60;;;12.50;99.90;;;;;;5025715;28;20040;-72
2023/05/06 07:11:51;;;;;;;27.48;16.75;;;12.50;99.90;;;;;;5016016;28;20470;-73
2023/05/06 07:14:16;;;;;;;26.70;16.80;;;12.40;99.90;;;;;;5017194;28;20033;-73
2023/05/06 07:16:42;;;;;;;27.95;17.20;;;12.50;99.90;;;;;;5015604;28;20049;-72
2023/05/06 07:19:08;;;;;;;26.65;16.65;;;12.50;99.90;;;;;;5012746;28;20042;-73
2023/05/06 07:21:33;;;;;;;24.25;15.25;;;12.60;99.90;;;;;;5028560;28;20400;-72
2023/05/06 07:23:59;;;;;;;24.17;14.98;;;12.60;99.90;;;;;;4999647;28;20543;-73
2023/05/06 07:26:25;;;;;;;23.73;15.00;;;12.60;99.90;;;;;;5029198;28;20034;-72
2023/05/06 07:28:50;;;;;;;23.67;15.25;;;12.60;99.90;;;;;;5014108;28;20373;-72
2023/05/06 07:31:19;;;;;;;24.67;16.13;;;12.70;99.90;;;;;;5011729;28;20038;-72
2023/05/06 07:33:45;;;;;;;24.20;15.55;;;12.60;99.90;;;;;;5023997;28;20057;-71
2023/05/06 07:36:11;;;;;;;22.83;16.38;;;12.80;99.90;;;;;;5019039;28;20069;-72
2023/05/06 07:38:37;;;;;;;24.98;16.23;;;13.00;99.90;;;;;;5018905;28;20076;-73
2023/05/06 07:41:04;;;;;;;26.13;17.23;;;13.00;99.90;;;;;;5024435;28;20053;-71
2023/05/06 07:43:29;;;;;;;24.85;16.42;;;13.10;99.90;;;;;;4999779;28;20037;-74
2023/05/06 07:46:01;;;;;;;27.52;17.17;;;13.10;99.90;;;;;;5028368;28;20042;-74
2023/05/06 07:48:29;;;;;;;26.52;17.45;;;13.20;99.90;;;;;;5014503;28;20130;-71
2023/05/06 07:50:56;;;;;;;27.15;17.75;;;13.30;99.90;;;;;;5030425;28;20037;-72
2023/05/06 07:53:21;;;;;;;24.33;16.77;;;13.30;99.90;;;;;;5031988;28;20053;-72
2023/05/06 07:55:47;;;;;;;25.20;16.52;;;13.10;99.90;;;;;;5022246;28;20041;-71
2023/05/06 07:58:13;;;;;;;26.35;16.67;;;13.20;99.90;;;;;;5029859;28;20041;-71
2023/05/06 08:00:39;;;;;;;25.55;17.42;;;13.20;99.90;;;;;;5020588;28;20033;-73
2023/05/06 08:03:05;;;;;;;26.33;16.98;;;13.20;99.90;;;;;;5027067;28;20693;-71
2023/05/06 08:05:30;;;;;;;26.27;17.00;;;13.30;99.90;;;;;;5032888;28;20544;-71
2023/05/06 08:07:56;;;;;;;26.80;16.90;;;13.30;99.90;;;;;;5046258;28;20503;-71
2023/05/06 08:10:22;;;;;;;25.45;17.23;;;13.30;99.90;;;;;;5020520;28;20145;-71
2023/05/06 08:12:47;;;;;;;24.55;16.63;;;13.30;99.90;;;;;;5011195;28;20046;-70
2023/05/06 08:15:13;;;;;;;22.85;15.48;;;13.30;99.90;;;;;;5014723;28;20053;-70
2023/05/06 08:17:39;;;;;;;26.63;17.20;;;13.30;99.90;;;;;;5018405;28;20029;-73
2023/05/06 08:20:05;;;;;;;25.20;17.13;;;13.30;99.90;;;;;;5013344;28;20125;-69
2023/05/06 08:22:31;;;;;;;27.30;17.55;;;13.50;99.90;;;;;;5025658;28;20045;-71
2023/05/06 08:24:57;;;;;;;29.95;19.30;;;13.80;99.90;;;;;;5029422;28;20037;-70
2023/05/06 08:27:23;;;;;;;26.17;17.52;;;14.50;99.90;;;;;;5027164;28;20073;-70
2023/05/06 08:29:49;;;;;;;24.92;17.30;;;15.10;99.90;;;;;;5010569;28;20105;-72
2023/05/06 08:32:14;;;;;;;27.45;16.90;;;15.70;99.90;;;;;;5018215;28;20064;-70
2023/05/06 08:34:40;;;;;;;22.20;16.02;;;16.20;99.90;;;;;;5029037;28;20045;-71
2023/05/06 08:37:05;;;;;;;19.35;14.43;;;16.50;99.90;;;;;;5014173;28;20038;-69
2023/05/06 08:39:31;;;;;;;19.05;14.20;;;16.90;99.90;;;;;;5026895;28;20139;-70
2023/05/06 08:42:00;;;;;;;18.27;13.55;;;17.20;99.90;;;;;;5012052;28;20045;-70
2023/05/06 08:44:26;;;;;;;17.83;13.52;;;17.60;99.90;;;;;;5017183;28;20041;-68
2023/05/06 08:46:52;;;;;;;18.88;13.23;;;17.90;99.90;;;;;;5021745;28;20786;-69
2023/05/06 08:49:17;;;;;;;17.00;13.18;;;17.80;99.90;;;;;;5011581;28;20591;-69
2023/05/06 08:51:45;;;;;;;17.80;12.38;;;18.00;99.90;;;;;;5005894;28;20038;-70
2023/05/06 08:54:11;;;;;;;17.77;13.32;;;18.10;99.90;;;;;;5022296;28;20049;-68
2023/05/06 08:56:39;;;;;;;14.65;11.35;;;17.90;99.90;;;;;;5020834;28;20064;-71
2023/05/06 08:59:07;;;;;;;16.85;11.77;;;17.70;99.90;;;;;;5026288;28;20168;-68
2023/05/06 09:01:34;;;;;;;18.15;12.30;;;18.00;99.90;;;;;;5028150;28;20560;-68
2023/05/06 09:04:02;;;;;;;14.15;11.10;;;18.30;99.90;;;;;;5013331;28;20054;-68
2023/05/06 09:06:28;;;;;;;14.23;11.07;;;18.10;99.90;;;;;;5026453;28;20080;-68
2023/05/06 09:08:54;;;;;;;16.15;11.20;;;18.40;99.90;;;;;;5020326;28;20069;-68
2023/05/06 09:11:28;;;;;;;18.98;13.02;;;18.70;99.90;;;;;;5012701;28;20045;-69
2023/05/06 09:14:11;;;;;;;17.98;12.48;;;18.60;99.90;;;;;;5020678;28;20049;-67
2023/05/06 09:16:38;;;;;;;14.90;11.80;;;18.60;99.90;;;;;;5013742;28;20042;-68
2023/05/06 09:19:04;;;;;;;14.77;10.23;;;18.90;99.90;;;;;;4998976;28;20049;-67
2023/05/06 09:21:34;;;;;;;14.13;11.32;;;19.20;99.90;;;;;;5030774;28;20053;-68
2023/05/06 09:24:00;;;;;;;16.23;11.70;;;19.10;99.90;;;;;;5030338;28;20048;-68
2023/05/06 09:26:30;;;;;;;15.63;10.90;;;18.80;99.90;;;;;;5015576;28;20116;-66
2023/05/06 09:28:59;;;;;;;16.02;11.73;;;18.70;99.90;;;;;;5024452;28;20041;-68
2023/05/06 09:31:26;;;;;;;15.98;11.70;;;18.80;99.90;;;;;;5024360;28;20592;-67
2023/05/06 09:33:53;;;;;;;16.85;12.23;;;18.80;99.90;;;;;;5020198;28;20041;-66
2023/05/06 09:36:19;;;;;;;19.27;12.98;;;18.90;99.90;;;;;;5021181;28;20045;-68
2023/05/06 09:38:45;;;;;;;16.80;12.15;;;18.80;99.90;;;;;;5015642;28;20080;-67
2023/05/06 09:41:12;;;;;;;17.73;12.13;;;18.80;99.90;;;;;;5020830;28;20689;-66
2023/05/06 09:43:41;;;;;;;16.48;12.25;;;18.90;99.90;;;;;;5020551;28;20063;-67
2023/05/06 09:46:07;;;;;;;16.73;11.80;;;18.90;99.90;;;;;;5017896;28;20095;-67
2023/05/06 09:48:34;;;;;;;17.83;11.70;;;18.90;99.90;;;;;;5008388;28;20113;-68
2023/05/06 09:51:00;;;;;;;16.15;11.32;;;18.70;99.90;;;;;;5014858;28;20209;-68
2023/05/06 09:53:26;;;;;;;16.05;11.55;;;18.70;99.90;;;;;;5012400;28;20113;-67
2023/05/06 09:55:55;;;;;;;16.08;11.30;;;19.00;99.90;;;;;;5004711;28;20041;-67
2023/05/06 09:58:21;;;;;;;17.70;12.05;;;19.00;99.90;;;;;;5016976;28;20059;-68
2023/05/06 10:00:48;;;;;;;16.55;11.63;;;18.90;99.90;;;;;;5000336;28;20059;-67
2023/05/06 10:03:24;;;;;;;18.90;11.60;;;19.00;99.90;;;;;;5007936;28;20037;-67
2023/05/06 10:05:51;;;;;;;14.50;10.52;;;19.40;99.90;;;;;;5008987;28;20145;-68
2023/05/06 10:08:18;;;;;;;16.35;11.80;;;20.30;99.40;;;;;;5021523;28;20045;-67
2023/05/06 10:10:46;;;;;;;17.98;12.00;;;21.10;94.40;;;;;;5009642;28;20037;-67
2023/05/06 10:13:12;;;;;;;15.35;11.35;;;22.00;91.70;;;;;;5017482;28;20045;-67
2023/05/06 10:15:38;;;;;;;17.23;11.77;;;22.40;87.80;;;;;;5013449;28;20124;-69
2023/05/06 10:18:06;;;;;;;16.25;11.07;;;22.00;84.80;;;;;;5002601;28;20184;-68
2023/05/06 10:20:34;;;;;;;17.38;10.98;;;21.80;84.20;;;;;;5009107;28;20034;-68
2023/05/06 10:23:19;;;;;;;15.90;11.18;;;21.30;84.00;;;;;;5009903;28;20480;-68
2023/05/06 10:25:46;;;;;;;15.35;10.20;;;21.10;80.80;;;;;;4997517;28;20318;-67
2023/05/06 10:28:12;;;;;;;14.30;9.38;;;21.10;84.30;;;;;;5006178;28;20078;-68
2023/05/06 10:30:39;;;;;;;14.55;9.63;;;21.50;83.00;;;;;;5010561;28;20069;-69
2023/05/06 10:33:09;;;;;;;14.70;9.25;;;21.90;77.00;;;;;;5027598;28;20124;-68
2023/05/06 10:35:41;;;;;;;13.60;9.45;;;22.00;75.30;;;;;;5010415;28;20048;-69
2023/05/06 10:38:13;;;;;;;15.10;9.95;;;21.80;75.20;;;;;;5011015;28;20037;-68
2023/05/06 10:40:39;;;;;;;14.68;9.70;;;21.80;78.30;;;;;;5010955;28;20628;-69
2023/05/06 10:43:26;;;;;;;15.57;10.20;;;21.70;78.00;;;;;;5011046;28;20646;-68
2023/05/06 10:46:13;;;;;;;17.65;11.57;;;21.60;81.30;;;;;;4996371;28;20034;-69
2023/05/06 10:49:09;;;;;;;18.90;12.85;;;21.30;70.40;;;;;;5016931;28;20069;-69
2023/05/06 10:51:36;;;;;;;19.45;12.15;;;21.00;78.90;;;;;;5000270;28;20041;-69
2023/05/06 10:54:09;;;;;;;17.13;11.85;;;21.00;78.80;;;;;;5014492;28;20136;-68
2023/05/06 10:56:38;;;;;;;20.63;13.32;;;20.60;77.50;;;;;;5004549;28;20043;-69
2023/05/06 10:59:08;;;;;;;24.50;12.43;;;20.30;77.50;;;;;;5003132;28;20048;-68
2023/05/06 11:01:35;;;;;;;19.02;11.77;;;20.10;78.80;;;;;;5007655;28;20156;-69
2023/05/06 11:04:13;;;;;;;19.77;12.20;;;19.80;78.30;;;;;;5019116;28;20571;-68
2023/05/06 11:06:43;;;;;;;20.60;13.02;;;19.50;77.40;;;;;;5003671;28;20038;-68
2023/05/06 11:09:22;;;;;;;;;;;19.30;78.10;;;;;;5008185;28;20059;-69
2023/05/06 11:11:57;;;;;;;21.70;11.80;;;19.20;81.80;;;;;;4993502;28;20384;-69
2023/05/06 11:14:30;;;;;;;18.20;11.65;;;19.00;80.20;;;;;;4991112;28;20053;-70
2023/05/06 11:16:58;;;;;;;17.52;12.60;;;19.00;79.80;;;;;;4981234;28;20052;-68
2023/05/06 11:19:26;;;;;;;17.45;11.35;;;19.10;80.70;;;;;;5003721;28;20042;-68
2023/05/06 11:21:57;;;;;;;22.05;12.63;;;19.10;80.10;;;;;;5007079;28;20105;-69
2023/05/06 11:24:31;;;;;;;18.50;12.43;;;19.50;79.90;;;;;;5029623;28;20068;-68
2023/05/06 11:26:58;;;;;;;19.38;12.43;;;19.60;77.10;;;;;;5025496;28;20461;-70
2023/05/06 11:29:24;;;;;;;17.58;12.38;;;19.60;76.70;;;;;;5012697;28;20041;-69
2023/05/06 11:31:52;;;;;;;19.92;12.57;;;19.60;77.80;;;;;;5044345;28;20045;-68
2023/05/06 11:34:31;;;;;;;16.00;11.50;;;19.60;78.10;;;;;;5002112;28;20050;-69
2023/05/06 11:37:05;;;;;;;18.33;11.88;;;19.60;81.90;;;;;;5019139;28;20052;-69
2023/05/06 11:39:33;;;;;;;19.77;13.48;;;19.50;79.00;;;;;;5011459;28;20057;-70
2023/05/06 11:42:04;;;;;;;16.23;12.02;;;19.30;73.30;;;;;;5013453;28;20529;-70
2023/05/06 11:44:34;;;;;;;15.75;11.52;;;19.30;79.80;;;;;;4993215;28;20184;-68
2023/05/06 11:47:04;;;;;;;15.05;11.13;;;19.10;76.50;;;;;;5038748;28;20728;-70
2023/05/06 11:49:40;;;;;;;13.43;10.65;;;18.90;74.30;;;;;;5012708;28;20034;-70
2023/05/06 11:52:11;;;;;;;15.93;10.95;;;18.80;79.50;;;;;;5011978;28;20045;-69
2023/05/06 11:54:41;;;;;;;15.30;10.68;;;18.70;80.90;;;;;;5011764;28;20064;-70
2023/05/06 11:57:07;;;;;;;13.75;10.35;;;18.50;73.90;;;;;;5031517;28;20367;-68
2023/05/06 11:59:38;;;;;;;14.77;9.82;;;18.40;78.90;;;;;;5029172;28;20116;-69
2023/05/06 12:02:08;;;;;;;16.08;9.88;;;18.40;78.40;;;;;;5032400;28;20106;-69
2023/05/06 12:04:42;;;;;;;;;;;18.40;78.50;;;;;;5022158;28;20080;-68
2023/05/06 12:07:10;;;;;;;11.40;9.20;;;18.60;81.70;;;;;;5022583;28;19925;-68
2023/05/06 12:09:45;;;;;;;14.15;10.77;;;18.90;81.20;;;;;;5015544;28;20036;-69
2023/05/06 12:12:13;;;;;;;14.48;11.30;;;19.40;78.40;;;;;;5017915;28;20440;-67
2023/05/06 12:14:40;;;;;;;14.95;9.95;;;19.80;76.60;;;;;;5031688;28;20091;-69
2023/05/06 12:17:06;;;;;;;15.52;9.90;;;20.00;75.10;;;;;;5020920;28;20042;-69
2023/05/06 12:19:32;;;;;;;15.05;9.80;;;20.00;74.30;;;;;;5009602;28;20100;-69
2023/05/06 12:22:17;;;;;;;13.07;9.63;;;20.00;74.40;;;;;;5019721;28;20045;-70
2023/05/06 12:24:44;;;;;;;13.68;9.35;;;20.00;74.20;;;;;;5010463;28;20100;-69
2023/05/06 12:27:09;;;;;;;15.30;10.10;;;20.30;75.10;;;;;;5016676;28;20508;-70
2023/05/06 12:29:35;;;;;;;15.82;10.32;;;20.50;74.30;;;;;;5019221;28;20041;-69
2023/05/06 12:32:07;;;;;;;18.08;11.75;;;20.70;73.60;;;;;;5023771;28;20045;-69
2023/05/06 12:34:38;;;;;;;13.48;10.73;;;20.50;72.20;;;;;;5015908;28;20050;-70
2023/05/06 12:37:04;;;;;;;;;;;20.50;74.30;;;;;;5008608;28;20080;-70